createdAt,value
2023-04-06T00:02:19.003Z,9.50
2023-04-06T00:05:22.887Z,9.53
2023-04-06T00:08:28.056Z,9.57
2023-04-06T00:11:31.259Z,9.87
2023-04-06T00:14:34.482Z,9.87
2023-04-06T00:17:38.054Z,10.07
2023-04-06T00:20:41.308Z,10.10
2023-04-06T00:23:46.293Z,9.77
2023-04-06T00:26:49.540Z,9.50
2023-04-06T00:29:53.421Z,8.90
2023-04-06T00:32:56.633Z,9.40
2023-04-06T00:36:00.299Z,9.93
2023-04-06T00:39:05.142Z,9.00
2023-04-06T00:42:14.203Z,8.70
2023-04-06T00:45:17.590Z,9.10
2023-04-06T00:48:21.147Z,9.20
2023-04-06T00:51:25.161Z,8.97
2023-04-06T00:54:30.458Z,9.40
2023-04-06T00:57:33.907Z,8.50
2023-04-06T01:00:37.168Z,9.17
2023-04-06T01:03:40.849Z,9.33
2023-04-06T01:06:44.024Z,8.73
2023-04-06T01:09:48.603Z,8.97
2023-04-06T01:12:51.838Z,9.60
2023-04-06T01:15:55.660Z,9.03
2023-04-06T01:18:58.933Z,9.67
2023-04-06T01:22:02.150Z,9.00
2023-04-06T01:25:07.708Z,9.43
2023-04-06T01:28:11.392Z,8.87
2023-04-06T01:31:14.573Z,8.07
2023-04-06T01:34:17.839Z,8.63
2023-04-06T01:37:21.414Z,8.70
2023-04-06T01:40:26.416Z,7.90
2023-04-06T01:43:29.638Z,8.37
2023-04-06T01:46:32.872Z,8.17
2023-04-06T01:49:36.139Z,8.27
2023-04-06T01:52:40.081Z,7.87
2023-04-06T01:55:44.710Z,7.80
2023-04-06T01:58:47.909Z,8.90
2023-04-06T02:01:51.121Z,8.17
2023-04-06T02:04:54.338Z,8.53
2023-04-06T02:07:57.583Z,8.80
2023-04-06T02:11:02.138Z,8.10
2023-04-06T02:14:05.806Z,8.43
2023-04-06T02:17:09.014Z,8.47
2023-04-06T02:20:12.946Z,8.90
2023-04-06T02:23:16.272Z,8.87
2023-04-06T02:26:21.134Z,8.30
2023-04-06T02:29:27.433Z,8.00
2023-04-06T02:32:30.652Z,7.70
2023-04-06T02:35:34.517Z,7.63
2023-04-06T02:38:37.742Z,7.67
2023-04-06T02:41:42.389Z,7.37
2023-04-06T02:44:46.153Z,7.73
2023-04-06T02:47:49.365Z,10.07
2023-04-06T02:50:52.649Z,8.33
2023-04-06T02:53:55.870Z,8.13
2023-04-06T02:57:00.820Z,8.33
2023-04-06T03:00:04.184Z,8.40
2023-04-06T03:03:08.584Z,8.47
2023-04-06T03:06:12.078Z,8.37
2023-04-06T03:09:15.874Z,8.07
2023-04-06T03:12:20.497Z,9.30
2023-04-06T03:15:23.784Z,9.63
2023-04-06T03:18:27.697Z,9.63
2023-04-06T03:21:30.939Z,10.93
2023-04-06T03:24:34.111Z,10.93
2023-04-06T03:27:38.674Z,11.60
2023-04-06T03:30:42.234Z,11.90
2023-04-06T03:33:45.489Z,12.17
2023-04-06T03:36:53.996Z,11.80
2023-04-06T03:40:07.702Z,10.70
2023-04-06T03:43:13.359Z,10.97
2023-04-06T03:46:16.680Z,12.17
2023-04-06T03:49:19.933Z,12.30
2023-04-06T03:52:24.054Z,11.40
2023-04-06T03:55:27.236Z,12.17
2023-04-06T03:58:32.096Z,11.83
2023-04-06T04:01:35.448Z,12.00
2023-04-06T04:04:38.791Z,11.90
2023-04-06T04:07:41.970Z,11.23
2023-04-06T04:10:45.134Z,13.50
2023-04-06T04:13:50.060Z,12.20
2023-04-06T04:16:53.851Z,11.73
2023-04-06T04:19:57.205Z,11.47
2023-04-06T04:23:00.661Z,13.50
2023-04-06T04:26:03.935Z,12.20
2023-04-06T04:29:09.030Z,12.43
2023-04-06T04:32:12.774Z,12.50
2023-04-06T04:35:16.088Z,12.40
2023-04-06T04:38:20.089Z,11.87
2023-04-06T04:41:23.365Z,13.10
2023-04-06T04:44:27.963Z,13.07
2023-04-06T04:47:31.224Z,12.70
2023-04-06T04:50:34.538Z,12.50
2023-04-06T04:53:37.706Z,11.87
2023-04-06T04:56:40.836Z,12.23
2023-04-06T04:59:45.523Z,12.03
2023-04-06T05:02:48.694Z,12.17
2023-04-06T05:05:52.113Z,11.70
2023-04-06T05:08:55.287Z,11.83
2023-04-06T05:11:58.506Z,12.17
2023-04-06T05:15:03.136Z,10.47
2023-04-06T05:18:06.989Z,11.90
2023-04-06T05:21:11.265Z,11.00
2023-04-06T05:24:14.846Z,11.10
2023-04-06T05:27:18.479Z,11.63
2023-04-06T05:30:23.209Z,11.13
2023-04-06T05:33:27.261Z,10.80
2023-04-06T05:36:33.179Z,10.73
2023-04-06T05:39:36.710Z,10.77
2023-04-06T05:42:40.236Z,11.77
2023-04-06T05:45:46.565Z,10.63
2023-04-06T05:48:49.740Z,11.50
2023-04-06T05:51:53.016Z,11.37
2023-04-06T05:54:56.505Z,10.80
2023-04-06T05:57:59.671Z,11.97
2023-04-06T06:01:05.786Z,11.80
2023-04-06T06:04:09.165Z,11.40
2023-04-06T06:07:12.428Z,10.97
2023-04-06T06:10:15.995Z,10.10
2023-04-06T06:13:19.137Z,11.17
2023-04-06T06:16:23.740Z,10.20
2023-04-06T06:19:26.938Z,9.87
2023-04-06T06:22:30.197Z,9.67
2023-04-06T06:25:35.949Z,9.43
2023-04-06T06:28:39.182Z,10.20
2023-04-06T06:31:43.811Z,10.00
2023-04-06T06:34:47.011Z,10.30
2023-04-06T06:37:50.487Z,11.30
2023-04-06T06:40:54.135Z,10.33
2023-04-06T06:43:57.331Z,10.23
2023-04-06T06:47:01.850Z,10.17
2023-04-06T06:50:05.638Z,9.47
2023-04-06T06:53:08.776Z,10.03
2023-04-06T06:56:13.717Z,10.30
2023-04-06T06:59:18.377Z,8.87
2023-04-06T07:02:23.049Z,10.47
2023-04-06T07:05:28.776Z,8.67
2023-04-06T07:08:32.801Z,9.30
2023-04-06T07:11:36.116Z,8.50
2023-04-06T07:14:39.366Z,8.23
2023-04-06T07:17:46.274Z,8.20
2023-04-06T07:20:49.635Z,8.80
2023-04-06T07:23:52.790Z,8.60
2023-04-06T07:26:56.820Z,7.97
2023-04-06T07:30:00.140Z,9.10
2023-04-06T07:33:05.017Z,8.40
2023-04-06T07:36:08.262Z,7.67
2023-04-06T07:39:11.664Z,9.17
2023-04-06T07:42:14.791Z,7.60
2023-04-06T07:45:18.085Z,7.90
2023-04-06T07:48:22.629Z,8.13
2023-04-06T07:51:26.557Z,8.20
2023-04-06T07:54:29.689Z,7.60
2023-04-06T07:57:32.858Z,6.90
2023-04-06T08:00:37.920Z,6.90
2023-04-06T08:03:42.593Z,7.23
2023-04-06T08:06:46.004Z,6.87
2023-04-06T08:09:49.639Z,6.63
2023-04-06T08:12:52.774Z,7.10
2023-04-06T08:15:56.023Z,6.50
2023-04-06T08:19:00.604Z,7.00
2023-04-06T08:22:05.446Z,6.70
2023-04-06T08:25:09.080Z,6.80
2023-04-06T08:28:12.265Z,6.40
2023-04-06T08:31:15.442Z,6.30
2023-04-06T08:34:20.015Z,5.80
2023-04-06T08:37:23.475Z,5.17
2023-04-06T08:40:28.814Z,5.30
2023-04-06T08:43:32.777Z,5.27
2023-04-06T08:46:36.244Z,5.17
2023-04-06T08:49:41.654Z,5.50
2023-04-06T08:52:45.799Z,7.47
2023-04-06T08:55:49.382Z,5.70
2023-04-06T08:58:56.214Z,5.23
2023-04-06T09:01:59.829Z,4.43
2023-04-06T09:05:04.855Z,3.80
2023-04-06T09:08:08.102Z,4.07
2023-04-06T09:11:11.876Z,4.33
2023-04-06T09:14:16.072Z,4.50
2023-04-06T09:17:23.387Z,4.60
2023-04-06T09:20:29.440Z,4.40
2023-04-06T09:23:33.377Z,4.70
2023-04-06T09:26:49.136Z,4.60
2023-04-06T09:29:52.278Z,5.50
2023-04-06T09:32:57.781Z,4.20
2023-04-06T09:36:04.214Z,4.30
2023-04-06T09:39:07.576Z,4.50
2023-04-06T09:42:10.772Z,4.03
2023-04-06T09:45:13.897Z,4.10
2023-04-06T09:48:17.297Z,3.90
2023-04-06T09:51:22.610Z,3.97
2023-04-06T09:54:29.215Z,3.83
2023-04-06T09:57:36.497Z,3.73
2023-04-06T10:00:46.581Z,4.17
2023-04-06T10:03:57.115Z,4.10
2023-04-06T10:07:02.266Z,4.00
2023-04-06T10:10:07.029Z,4.23
2023-04-06T10:13:12.112Z,3.70
2023-04-06T10:16:16.609Z,4.10
2023-04-06T10:19:25.115Z,3.90
2023-04-06T10:22:38.507Z,4.13
2023-04-06T10:25:41.793Z,3.27
2023-04-06T10:28:47.651Z,3.47
2023-04-06T10:31:51.396Z,3.40
2023-04-06T10:34:54.648Z,3.40
2023-04-06T10:38:06.879Z,3.20
2023-04-06T10:41:11.753Z,4.20
2023-04-06T10:44:22.386Z,3.67
2023-04-06T10:47:25.759Z,3.30
2023-04-06T10:50:31.755Z,3.83
2023-04-06T10:53:36.782Z,3.37
2023-04-06T10:56:40.968Z,3.70
2023-04-06T10:59:45.480Z,3.90
2023-04-06T11:02:52.122Z,3.60
2023-04-06T11:05:55.586Z,3.70
2023-04-06T11:09:00.529Z,3.87
2023-04-06T11:12:03.694Z,4.00
2023-04-06T11:15:08.050Z,3.97
2023-04-06T11:18:12.385Z,3.77
2023-04-06T11:21:15.762Z,3.30
2023-04-06T11:24:21.701Z,3.47
2023-04-06T11:27:26.546Z,3.90
2023-04-06T11:30:29.904Z,3.80
2023-04-06T11:33:39.194Z,3.37
2023-04-06T11:36:44.696Z,4.30
2023-04-06T11:39:52.542Z,4.00
2023-04-06T11:42:56.461Z,3.97
2023-04-06T11:46:04.170Z,4.00
2023-04-06T11:49:07.818Z,3.53
2023-04-06T11:52:18.567Z,3.90
2023-04-06T11:55:23.528Z,3.67
2023-04-06T11:58:27.768Z,3.40
2023-04-06T12:01:36.997Z,3.90
2023-04-06T12:04:42.422Z,3.53
2023-04-06T12:07:45.710Z,3.57
2023-04-06T12:10:50.426Z,3.80
2023-04-06T12:13:54.752Z,3.80
2023-04-06T12:16:59.561Z,3.97
2023-04-06T12:20:09.471Z,3.70
2023-04-06T12:23:17.016Z,4.00
2023-04-06T12:26:21.820Z,3.80
2023-04-06T12:29:26.338Z,4.03
2023-04-06T12:32:29.575Z,3.83
2023-04-06T12:35:36.304Z,3.40
2023-04-06T12:38:41.243Z,3.70
2023-04-06T12:41:46.102Z,3.53
2023-04-06T12:44:49.250Z,4.10
2023-04-06T12:47:55.907Z,4.30
2023-04-06T12:51:01.017Z,3.60
2023-04-06T12:54:04.247Z,3.80
2023-04-06T12:57:08.909Z,3.77
2023-04-06T13:00:13.116Z,4.10
2023-04-06T13:03:16.668Z,3.40
2023-04-06T13:06:20.045Z,3.67
2023-04-06T13:09:23.251Z,3.40
2023-04-06T13:12:28.158Z,3.70
2023-04-06T13:15:31.929Z,3.80
2023-04-06T13:18:35.699Z,3.50
2023-04-06T13:21:38.949Z,3.83
2023-04-06T13:24:42.098Z,3.53
2023-04-06T13:27:48.643Z,4.30
2023-04-06T13:30:51.945Z,4.17
2023-04-06T13:33:55.138Z,4.53
2023-04-06T13:36:58.336Z,3.43
2023-04-06T13:40:01.536Z,3.80
2023-04-06T13:43:06.453Z,4.03
2023-04-06T13:46:10.693Z,4.10
2023-04-06T13:49:13.982Z,3.80
2023-04-06T13:52:17.213Z,3.93
2023-04-06T13:55:20.480Z,4.00
2023-04-06T13:58:25.197Z,3.63
2023-04-06T14:01:28.703Z,3.80
2023-04-06T14:04:32.204Z,3.83
2023-04-06T14:07:35.340Z,3.63
2023-04-06T14:10:41.220Z,3.77
2023-04-06T14:13:45.972Z,3.73
2023-04-06T14:16:49.636Z,3.30
2023-04-06T14:19:53.895Z,3.63
2023-04-06T14:22:56.934Z,3.30
2023-04-06T14:26:04.786Z,3.60
2023-04-06T14:29:09.610Z,3.63
2023-04-06T14:32:12.587Z,3.90
2023-04-06T14:35:15.658Z,3.63
2023-04-06T14:38:18.797Z,3.70
2023-04-06T14:41:23.676Z,3.37
2023-04-06T14:44:28.151Z,4.10
2023-04-06T14:47:31.373Z,3.87
2023-04-06T14:50:35.351Z,4.20
2023-04-06T14:53:38.455Z,4.03
2023-04-06T14:56:41.461Z,3.73
2023-04-06T14:59:45.903Z,3.83
2023-04-06T15:02:49.024Z,3.70
2023-04-06T15:05:52.266Z,3.93
2023-04-06T15:08:55.928Z,3.70
2023-04-06T15:11:58.965Z,4.20
2023-04-06T15:15:07.437Z,3.57
2023-04-06T15:18:10.622Z,4.10
2023-04-06T15:21:13.753Z,4.30
2023-04-06T15:24:16.783Z,3.73
2023-04-06T15:27:19.814Z,4.10
2023-04-06T15:30:24.450Z,3.50
2023-04-06T15:33:27.803Z,4.37
2023-04-06T15:36:31.572Z,4.00
2023-04-06T15:39:34.766Z,3.60
2023-04-06T15:42:37.805Z,4.10
2023-04-06T15:45:42.324Z,4.60
2023-04-06T15:48:45.846Z,4.30
2023-04-06T15:51:49.410Z,4.20
2023-04-06T15:54:52.411Z,4.20
2023-04-06T15:57:55.474Z,4.10
2023-04-06T16:01:00.007Z,4.30
2023-04-06T16:04:03.114Z,4.27
2023-04-06T16:07:06.392Z,4.63
2023-04-06T16:10:10.662Z,4.47
2023-04-06T16:13:13.735Z,3.97
2023-04-06T16:16:18.173Z,3.87
2023-04-06T16:19:21.264Z,4.40
2023-04-06T16:22:24.555Z,4.63
2023-04-06T16:25:27.777Z,3.90
2023-04-06T16:28:31.456Z,3.90
2023-04-06T16:31:35.884Z,4.40
2023-04-06T16:34:39.130Z,3.80
2023-04-06T16:37:42.232Z,4.00
2023-04-06T16:40:45.598Z,4.20
2023-04-06T16:43:49.374Z,4.30
2023-04-06T16:46:53.794Z,4.50
2023-04-06T16:50:05.324Z,3.90
2023-04-06T16:53:11.757Z,4.00
2023-04-06T16:56:14.980Z,4.00
2023-04-06T16:59:18.071Z,4.20
2023-04-06T17:02:22.675Z,4.60
2023-04-06T17:05:27.514Z,4.00
2023-04-06T17:08:30.620Z,4.20
2023-04-06T17:11:43.586Z,4.17
2023-04-06T17:14:48.928Z,3.93
2023-04-06T17:17:54.251Z,3.97
2023-04-06T17:20:57.422Z,4.43
2023-04-06T17:24:00.452Z,4.73
2023-04-06T17:27:03.853Z,4.73
2023-04-06T17:30:12.266Z,4.07
2023-04-06T17:33:17.221Z,4.10
2023-04-06T17:36:21.342Z,4.00
2023-04-06T17:39:25.010Z,4.40
2023-04-06T17:42:28.096Z,4.30
2023-04-06T17:45:31.341Z,4.40
2023-04-06T17:48:35.779Z,4.50
2023-04-06T17:51:38.950Z,4.43
2023-04-06T17:54:43.205Z,5.10
2023-04-06T17:57:46.856Z,5.20
2023-04-06T18:00:49.935Z,4.97
2023-04-06T18:03:54.486Z,6.00
2023-04-06T18:06:57.662Z,5.20
2023-04-06T18:10:01.540Z,5.03
2023-04-06T18:13:05.032Z,5.40
2023-04-06T18:16:08.402Z,5.43
2023-04-06T18:19:12.940Z,5.37
2023-04-06T18:22:16.343Z,5.30
2023-04-06T18:25:19.478Z,6.00
2023-04-06T18:28:22.517Z,6.03
2023-04-06T18:31:25.885Z,6.17
2023-04-06T18:34:30.357Z,5.60
2023-04-06T18:37:33.325Z,6.17
2023-04-06T18:40:37.961Z,6.40
2023-04-06T18:43:41.336Z,6.70
2023-04-06T18:46:45.235Z,6.60
2023-04-06T18:49:50.009Z,6.77
2023-04-06T18:52:53.150Z,6.47
2023-04-06T18:55:57.803Z,6.30
2023-04-06T18:59:00.988Z,6.83
2023-04-06T19:02:04.115Z,6.53
2023-04-06T19:05:09.520Z,6.57
2023-04-06T19:08:13.391Z,7.07
2023-04-06T19:11:16.598Z,8.23
2023-04-06T19:14:19.730Z,8.57
2023-04-06T19:17:22.838Z,8.37
2023-04-06T19:20:27.397Z,8.03
2023-04-06T19:23:30.583Z,7.63
2023-04-06T19:26:34.983Z,8.37
2023-04-06T19:29:38.990Z,8.47
2023-04-06T19:32:42.144Z,8.20
2023-04-06T19:35:46.829Z,7.87
2023-04-06T19:38:49.861Z,9.43
2023-04-06T19:41:52.896Z,8.80
2023-04-06T19:44:57.091Z,8.13
2023-04-06T19:48:01.602Z,8.03
2023-04-06T19:51:06.901Z,8.93
2023-04-06T19:54:09.939Z,8.90
2023-04-06T19:57:13.045Z,9.40
2023-04-06T20:00:16.728Z,8.23
2023-04-06T20:03:21.836Z,8.50
2023-04-06T20:06:26.685Z,9.00
2023-04-06T20:09:30.007Z,9.03
2023-04-06T20:12:33.141Z,8.17
2023-04-06T20:15:36.247Z,8.53
2023-04-06T20:18:39.285Z,8.20
2023-04-06T20:21:44.132Z,7.90
2023-04-06T20:24:47.545Z,8.83
2023-04-06T20:27:50.765Z,8.30
2023-04-06T20:30:54.438Z,8.07
2023-04-06T20:33:57.523Z,8.30
2023-04-06T20:37:01.966Z,8.07
2023-04-06T20:40:05.896Z,8.53
2023-04-06T20:43:10.039Z,8.07
2023-04-06T20:46:16.905Z,8.23
2023-04-06T20:49:23.492Z,8.33
2023-04-06T20:52:28.374Z,9.87
2023-04-06T20:55:31.514Z,9.03
2023-04-06T20:58:34.565Z,8.83
2023-04-06T21:01:37.874Z,9.60
2023-04-06T21:04:41.117Z,9.03
2023-04-06T21:07:45.643Z,9.13
2023-04-06T21:10:48.742Z,8.67
2023-04-06T21:13:51.765Z,8.40
2023-04-06T21:16:55.810Z,9.40
2023-04-06T21:19:58.907Z,9.87
2023-04-06T21:23:03.360Z,10.40
2023-04-06T21:26:06.695Z,8.40
2023-04-06T21:29:10.075Z,8.27
2023-04-06T21:32:13.264Z,8.17
2023-04-06T21:35:16.412Z,9.00
2023-04-06T21:38:20.841Z,8.90
2023-04-06T21:41:23.834Z,8.97
2023-04-06T21:44:26.845Z,9.47
2023-04-06T21:47:29.959Z,9.37
2023-04-06T21:50:33.054Z,9.87
2023-04-06T21:53:37.469Z,9.60
2023-04-06T21:56:40.829Z,9.03
2023-04-06T21:59:43.931Z,9.07
2023-04-06T22:02:47.430Z,8.37
2023-04-06T22:05:50.799Z,9.20
2023-04-06T22:08:56.698Z,9.77
2023-04-06T22:11:59.788Z,9.40
2023-04-06T22:15:02.933Z,10.90
2023-04-06T22:18:06.117Z,10.03
2023-04-06T22:21:10.015Z,9.70
2023-04-06T22:24:14.524Z,9.77
2023-04-06T22:27:17.557Z,8.93
2023-04-06T22:30:20.639Z,9.83
2023-04-06T22:33:23.761Z,9.23
2023-04-06T22:36:27.118Z,10.00
2023-04-06T22:39:34.637Z,9.80
2023-04-06T22:42:37.678Z,9.83
2023-04-06T22:45:41.288Z,10.47
2023-04-06T22:48:44.374Z,10.33
2023-04-06T22:51:47.462Z,10.10
2023-04-06T22:54:51.927Z,10.77
2023-04-06T22:57:55.052Z,10.47
2023-04-06T23:00:58.097Z,10.50
2023-04-06T23:04:01.356Z,12.07
2023-04-06T23:07:04.504Z,12.67
2023-04-06T23:10:09.940Z,12.07
2023-04-06T23:13:12.966Z,12.70
2023-04-06T23:16:16.155Z,11.90
2023-04-06T23:19:19.592Z,12.07
2023-04-06T23:22:22.679Z,11.90
2023-04-06T23:25:27.113Z,11.53
2023-04-06T23:28:32.013Z,12.43
2023-04-06T23:31:35.296Z,12.43
2023-04-06T23:34:38.613Z,12.20
2023-04-06T23:37:41.882Z,11.43
2023-04-06T23:40:46.525Z,11.43
2023-04-06T23:43:49.533Z,11.37
2023-04-06T23:46:52.608Z,11.73
2023-04-06T23:49:56.351Z,11.30
2023-04-06T23:52:59.945Z,11.03
2023-04-06T23:56:04.398Z,10.40
2023-04-06T23:59:07.436Z,10.57
